Time;durP1;ratioP1;P1;durP2;ratioP2;P2;SDS_P1;SDS_P2;PMS_P1;PMS_P2;Temp;Humidity;BMP_temperature;BMP_pressure;BME280_temperature;BME280_humidity;BME280_pressure;Samples;Min_cycle;Max_cycle;Signal;HPM_P1;HPM_P2
2022/01/26 00:06:32;;;;;;;8.60;5.35;;;;;;;-12.77;94.21;95795.50;5065951;28;20037;-47
2022/01/26 00:08:59;;;;;;;11.98;4.25;;;;;;;-12.67;93.95;95796.75;5059779;28;20032;-47
2022/01/26 00:11:27;;;;;;;16.98;4.88;;;;;;;-12.70;93.88;95777.59;5061178;28;20056;-48
2022/01/26 00:13:54;;;;;;;7.55;3.20;;;;;;;-12.52;93.95;95791.06;5067884;28;20059;-48
2022/01/26 00:16:35;;;;;;;12.68;6.57;;;;;;;-12.49;93.68;95780.09;5069193;28;20059;-48
2022/01/26 00:19:04;;;;;;;6.35;4.18;;;;;;;-12.33;93.32;95795.28;5061613;28;20098;-50
2022/01/26 00:21:35;;;;;;;9.40;4.30;;;;;;;-12.36;93.30;95790.41;5062160;28;20056;-50
2022/01/26 00:24:54;;;;;;;4.78;4.28;;;;;;;-12.39;92.88;95770.44;5061813;28;20547;-47
2022/01/26 00:27:08;;;;;;;9.27;3.72;;;;;;;-12.40;92.27;95778.88;5060249;28;20055;-48
2022/01/26 00:29:38;;;;;;;8.63;5.60;;;;;;;-12.53;91.93;95779.41;5060030;28;20478;-50
2022/01/26 00:40:27;;;;;;;6.88;3.55;;;;;;;-12.72;91.96;95768.53;5062297;28;20162;-50
2022/01/26 00:42:58;;;;;;;10.10;5.30;;;;;;;-12.61;91.66;95780.63;5063995;28;20040;-48
2022/01/26 00:45:33;;;;;;;6.95;2.85;;;;;;;-12.60;91.63;95773.03;5060523;28;20432;-49
2022/01/26 00:48:04;;;;;;;10.23;4.28;;;;;;;-12.58;91.61;95773.78;5061274;28;20123;-50
2022/01/26 00:50:33;;;;;;;5.80;3.97;;;;;;;-12.59;91.29;95774.63;5060136;28;20055;-47
2022/01/26 00:53:00;;;;;;;6.85;2.78;;;;;;;-12.61;91.01;95776.41;5060064;28;20481;-47
2022/01/26 00:55:27;;;;;;;5.97;3.15;;;;;;;-12.67;90.69;95776.69;5060014;28;20079;-48
2022/01/26 00:57:54;;;;;;;6.68;3.80;;;;;;;-12.73;90.84;95767.72;5060111;28;21443;-47
2022/01/26 01:00:25;;;;;;;2.72;1.92;;;;;;;-12.72;91.08;95776.88;5060941;28;20056;-47
2022/01/26 01:02:54;;;;;;;15.48;4.13;;;;;;;-12.91;92.70;95773.50;5061737;28;20048;-46
2022/01/26 01:05:40;;;;;;;9.13;4.53;;;;;;;-12.78;93.39;95768.78;5063459;28;20076;-50
2022/01/26 01:08:13;;;;;;;13.00;5.50;;;;;;;-12.67;93.89;95761.63;5059597;28;20048;-49
2022/01/26 01:10:43;;;;;;;13.18;5.55;;;;;;;-12.58;94.41;95761.22;5059842;28;20041;-49
2022/01/26 01:13:15;;;;;;;24.45;10.10;;;;;;;-12.50;94.89;95764.19;5064325;28;20045;-47
2022/01/26 01:15:43;;;;;;;20.10;8.38;;;;;;;-12.39;95.27;95767.94;5063492;28;20070;-48
2022/01/26 01:18:24;;;;;;;9.88;4.38;;;;;;;-12.25;95.11;95767.31;5061974;28;20395;-47
2022/01/26 01:31:39;;;;;;;6.65;3.95;;;;;;;-11.89;94.49;95749.72;5062927;28;20040;-47
2022/01/26 01:34:05;;;;;;;7.88;4.13;;;;;;;-11.83;94.04;95749.44;5063124;28;20527;-47
2022/01/26 01:36:33;;;;;;;7.90;4.05;;;;;;;-11.79;94.07;95745.91;5063495;28;20040;-47
2022/01/26 01:39:00;;;;;;;4.13;3.72;;;;;;;-11.69;94.14;95755.50;5063337;28;20041;-47
2022/01/26 01:41:27;;;;;;;6.47;4.20;;;;;;;-11.70;94.04;95743.81;5063615;28;20498;-47
2022/01/26 01:43:54;;;;;;;9.95;4.75;;;;;;;-11.68;93.79;95740.38;5062262;28;20119;-47
2022/01/26 01:46:21;;;;;;;13.20;4.10;;;;;;;-11.73;93.29;95730.50;5061355;28;20105;-47
2022/01/26 01:48:48;;;;;;;11.95;4.68;;;;;;;-11.67;93.06;95739.47;5061515;28;20044;-47
2022/01/26 01:51:17;;;;;;;10.15;3.67;;;;;;;-11.62;92.82;95737.53;5062607;28;20055;-47
2022/01/26 01:53:44;;;;;;;15.50;5.00;;;;;;;-11.60;92.45;95737.47;5063435;28;20464;-48
2022/01/26 01:56:15;;;;;;;12.40;3.35;;;;;;;-11.57;92.38;95734.81;5063408;28;20052;-47
2022/01/26 01:58:42;;;;;;;12.73;4.82;;;;;;;-11.60;91.71;95735.75;5060436;28;20043;-49
2022/01/26 02:01:10;;;;;;;14.35;6.68;;;;;;;-11.66;91.51;95725.22;5063823;28;20055;-47
2022/01/26 02:03:37;;;;;;;8.30;4.97;;;;;;;-11.56;90.91;95731.41;5065585;28;20082;-47
2022/01/26 02:06:04;;;;;;;14.50;5.53;;;;;;;-11.59;90.77;95734.09;5065343;28;20498;-49
2022/01/26 02:08:30;;;;;;;13.77;5.78;;;;;;;-11.64;90.30;95729.25;5062130;28;20526;-49
2022/01/26 02:10:57;;;;;;;5.30;3.58;;;;;;;-11.63;89.99;95717.50;5061666;28;20066;-49
2022/01/26 02:13:29;;;;;;;7.53;6.00;;;;;;;-11.52;90.12;95737.09;5062518;28;20049;-48
2022/01/26 02:16:13;;;;;;;7.75;4.35;;;;;;;-11.51;90.29;95719.44;5062413;28;20048;-47
2022/01/26 02:19:24;;;;;;;8.52;4.13;;;;;;;-11.55;90.02;95718.75;5067482;28;20418;-49
2022/01/26 03:04:51;;;;;;;7.15;4.95;;;;;;;-10.58;91.83;95713.91;5065887;28;20494;-50
2022/01/26 03:09:52;;;;;;;8.60;3.85;;;;;;;-10.49;91.47;95700.03;5060810;28;20036;-48
2022/01/26 03:12:30;;;;;;;;;;;;;;;-10.45;91.57;95705.72;5061780;28;20044;-51
2022/01/26 03:15:01;;;;;;;10.13;4.10;;;;;;;-10.41;91.38;95702.13;5060906;28;19931;-48
2022/01/26 03:20:04;;;;;;;10.55;4.57;;;;;;;-10.33;92.12;95710.09;5060796;28;20040;-48
2022/01/26 03:35:47;;;;;;;17.95;6.82;;;;;;;-9.96;91.30;95703.03;5062543;28;20056;-50
2022/01/26 03:40:58;;;;;;;12.70;8.50;;;;;;;-9.86;91.18;95699.13;5062607;28;20058;-47
2022/01/26 03:43:25;;;;;;;11.65;6.95;;;;;;;-9.81;90.76;95697.16;5061677;28;21066;-47
2022/01/26 03:45:52;;;;;;;10.05;5.47;;;;;;;-9.80;90.63;95692.91;5062069;28;20064;-50
2022/01/26 03:48:18;;;;;;;14.40;5.72;;;;;;;-9.73;90.38;95696.72;5066384;28;20036;-47
2022/01/26 03:50:45;;;;;;;10.65;5.70;;;;;;;-9.73;90.45;95694.19;5060663;28;20867;-48
2022/01/26 03:53:12;;;;;;;15.95;5.38;;;;;;;-9.75;90.37;95680.06;5058930;28;20048;-47
2022/01/26 03:55:39;;;;;;;15.27;8.02;;;;;;;-9.73;90.36;95685.84;5060176;28;20129;-47
2022/01/26 03:58:06;;;;;;;19.83;8.15;;;;;;;-9.69;90.07;95680.53;5064736;28;20048;-49
2022/01/26 04:00:33;;;;;;;15.07;9.18;;;;;;;-9.70;89.93;95678.91;5061249;28;20094;-48
2022/01/26 04:03:00;;;;;;;12.85;7.65;;;;;;;-9.67;89.89;95682.97;5058905;28;20072;-47
2022/01/26 04:05:27;;;;;;;12.10;6.63;;;;;;;-9.66;90.02;95685.41;5063174;28;20498;-49
2022/01/26 04:08:00;;;;;;;20.10;9.00;;;;;;;-9.65;89.68;95682.00;5062004;28;20039;-47
2022/01/26 04:13:05;;;;;;;10.38;6.28;;;;;;;-9.62;90.04;95676.75;5059274;28;20509;-48
2022/01/26 04:15:35;;;;;;;10.73;5.57;;;;;;;-9.60;89.99;95681.72;5058890;28;20052;-48
2022/01/26 04:18:06;;;;;;;12.45;5.13;;;;;;;-9.59;90.03;95675.78;5060711;28;20037;-50
2022/01/26 04:20:38;;;;;;;12.88;7.47;;;;;;;-9.61;90.04;95672.53;5059982;28;20132;-49
2022/01/26 04:23:13;;;;;;;9.75;4.18;;;;;;;-9.60;90.02;95679.19;5063612;28;20052;-48
2022/01/26 04:25:42;;;;;;;;;;;;;;;-9.55;89.66;95674.72;5059944;28;20053;-49
2022/01/26 04:28:14;;;;;;;5.50;2.95;;;;;;;-9.50;89.28;95676.97;5059118;28;19941;-48
2022/01/26 04:30:41;;;;;;;13.05;6.40;;;;;;;-9.49;88.83;95676.91;5059951;28;20055;-47
2022/01/26 04:33:08;;;;;;;13.07;6.70;;;;;;;-9.49;89.22;95676.91;5059423;28;20045;-48
2022/01/26 04:35:40;;;;;;;26.73;12.45;;;;;;;-9.47;89.12;95677.63;5059441;28;20048;-49
2022/01/26 04:38:25;;;;;;;19.40;9.30;;;;;;;-9.44;89.54;95682.47;5062004;28;20051;-47
2022/01/26 04:41:26;;;;;;;10.60;7.47;;;;;;;-9.44;89.58;95669.84;5058160;28;20045;-49
2022/01/26 04:43:44;;;;;;;8.85;6.47;;;;;;;-9.39;89.78;95676.38;5055236;28;20498;-48
2022/01/26 04:46:11;;;;;;;9.38;5.32;;;;;;;-9.43;89.81;95673.22;5054669;28;20075;-47
2022/01/26 04:48:38;;;;;;;9.65;4.30;;;;;;;-9.38;90.09;95677.97;5063442;28;20883;-49
2022/01/26 04:51:04;;;;;;;11.75;5.45;;;;;;;-9.37;89.87;95674.56;5063008;28;20471;-48
2022/01/26 04:53:36;;;;;;;12.65;6.53;;;;;;;-9.35;89.92;95675.28;5060565;28;20090;-49
2022/01/26 04:56:03;;;;;;;12.80;6.85;;;;;;;-9.31;89.96;95679.25;5064059;28;20040;-48
2022/01/26 04:58:30;;;;;;;12.43;5.20;;;;;;;-9.30;89.90;95668.25;5059903;28;20048;-48
2022/01/26 05:00:57;;;;;;;16.63;6.93;;;;;;;-9.31;90.17;95680.06;5061513;28;20056;-47
2022/01/26 05:03:24;;;;;;;11.63;7.07;;;;;;;-9.24;90.19;95671.25;5064397;28;20054;-48
2022/01/26 05:05:50;;;;;;;9.25;4.32;;;;;;;-9.21;90.20;95660.16;5068438;28;20033;-48
2022/01/26 05:08:17;;;;;;;11.55;5.43;;;;;;;-9.17;89.99;95661.59;5063847;28;20573;-48
2022/01/26 05:10:45;;;;;;;11.07;4.53;;;;;;;-9.19;90.21;95662.59;5062337;28;20038;-50
2022/01/26 05:13:14;;;;;;;10.70;6.55;;;;;;;-9.18;90.37;95667.56;5062350;28;20545;-50
2022/01/26 05:15:42;;;;;;;13.25;5.97;;;;;;;-9.19;90.78;95673.50;5068540;28;20032;-49
2022/01/26 05:18:10;;;;;;;6.28;4.47;;;;;;;-9.20;91.16;95671.88;5064621;28;20101;-49
2022/01/26 05:20:37;;;;;;;15.30;6.20;;;;;;;-9.15;91.44;95669.06;5061270;28;20486;-48
2022/01/26 05:23:04;;;;;;;9.55;6.85;;;;;;;-9.09;91.57;95661.97;5061699;28;20432;-49
2022/01/26 05:25:31;;;;;;;14.38;7.50;;;;;;;-8.97;91.31;95667.19;5060748;28;20059;-48
2022/01/26 05:27:58;;;;;;;11.77;5.78;;;;;;;-8.93;91.20;95663.56;5064375;28;20036;-49
2022/01/26 05:30:27;;;;;;;15.63;7.53;;;;;;;-8.95;91.31;95665.38;5061999;28;20123;-49
2022/01/26 05:32:54;;;;;;;9.30;7.65;;;;;;;-8.93;91.46;95663.56;5064041;28;20040;-48
2022/01/26 05:35:20;;;;;;;26.27;6.22;;;;;;;-8.89;91.37;95665.03;5064177;28;20471;-49
2022/01/26 05:37:47;;;;;;;15.10;5.45;;;;;;;-8.84;91.17;95663.00;5064787;28;20493;-49
2022/01/26 05:40:14;;;;;;;11.38;6.68;;;;;;;-8.83;91.15;95652.03;5068285;28;20063;-49
2022/01/26 05:42:41;;;;;;;26.65;10.85;;;;;;;-8.82;91.08;95656.19;5066740;28;20142;-48
2022/01/26 05:45:20;;;;;;;41.30;21.13;;;;;;;-8.86;91.45;95649.66;5065629;28;20124;-47
2022/01/26 05:47:47;;;;;;;23.92;12.20;;;;;;;-8.77;91.32;95649.13;5062790;28;20041;-48
2022/01/26 05:50:14;;;;;;;27.80;11.98;;;;;;;-8.81;91.37;95642.63;5066721;28;20044;-49
2022/01/26 05:52:41;;;;;;;22.20;11.65;;;;;;;-8.72;91.83;95652.19;5062050;28;20090;-49
2022/01/26 05:55:08;;;;;;;22.42;8.93;;;;;;;-8.66;91.69;95656.88;5061898;28;20794;-48
2022/01/26 05:57:35;;;;;;;23.45;11.30;;;;;;;-8.66;91.90;95651.84;5065465;28;20395;-48
2022/01/26 06:00:05;;;;;;;15.40;7.95;;;;;;;-8.65;91.94;95647.59;5060799;28;20048;-47
2022/01/26 06:02:41;;;;;;;16.70;8.88;;;;;;;-8.57;91.72;95644.56;5057894;28;20052;-49
2022/01/26 06:05:08;;;;;;;24.75;12.95;;;;;;;-8.53;91.10;95654.41;5060072;28;20053;-48
2022/01/26 06:07:35;;;;;;;23.85;14.20;;;;;;;-8.47;90.98;95655.75;5059433;28;20056;-46
2022/01/26 06:10:03;;;;;;;22.25;13.25;;;;;;;-8.42;90.66;95653.75;5056803;28;20051;-48
2022/01/26 06:12:33;;;;;;;23.88;10.90;;;;;;;-8.42;90.52;95642.84;5058701;28;20052;-48
2022/01/26 06:15:04;;;;;;;20.55;11.80;;;;;;;-8.41;90.01;95655.31;5057094;28;20063;-48
2022/01/26 06:17:31;;;;;;;25.50;11.40;;;;;;;-8.37;89.81;95646.69;5057325;28;20044;-49
2022/01/26 06:19:58;;;;;;;16.33;9.57;;;;;;;-8.44;89.14;95637.88;5057381;28;20049;-48
2022/01/26 06:22:24;;;;;;;34.33;16.25;;;;;;;-8.41;88.84;95654.53;5060724;28;20502;-49
2022/01/26 06:24:54;;;;;;;20.52;14.10;;;;;;;-8.50;89.07;95653.41;5057545;28;20893;-48
2022/01/26 06:27:21;;;;;;;21.13;11.38;;;;;;;-8.35;89.19;95649.91;5057629;28;20518;-49
2022/01/26 06:29:47;;;;;;;24.10;9.88;;;;;;;-8.30;89.12;95652.13;5059908;28;20040;-47
2022/01/26 06:32:17;;;;;;;14.50;8.23;;;;;;;-8.21;88.77;95650.75;5056548;28;20553;-48
2022/01/26 06:34:44;;;;;;;21.88;9.40;;;;;;;-8.15;88.91;95645.34;5060761;28;20056;-48
2022/01/26 06:37:11;;;;;;;22.60;11.93;;;;;;;-8.07;89.10;95650.72;5058142;28;20049;-48
2022/01/26 06:39:38;;;;;;;30.17;11.60;;;;;;;-7.97;89.06;95653.50;5056025;28;20049;-49
2022/01/26 06:42:12;;;;;;;31.35;13.82;;;;;;;-7.91;89.04;95648.84;5058245;28;20051;-49
2022/01/26 06:44:50;;;;;;;35.57;14.83;;;;;;;-7.82;89.37;95644.91;5055587;28;20049;-53
2022/01/26 06:47:33;;;;;;;25.52;15.15;;;;;;;-7.67;89.27;95650.69;5062743;28;20454;-48
2022/01/26 06:50:00;;;;;;;27.77;14.20;;;;;;;-7.60;89.18;95641.81;5059531;28;20425;-48
2022/01/26 06:52:26;;;;;;;19.13;9.57;;;;;;;-7.41;88.50;95650.75;5062800;28;20041;-49
2022/01/26 06:54:53;;;;;;;25.48;13.15;;;;;;;-7.31;88.59;95657.63;5061223;28;20182;-49
2022/01/26 06:57:20;;;;;;;21.02;10.52;;;;;;;-7.22;88.14;95656.22;5063192;28;20044;-49
2022/01/26 06:59:47;;;;;;;16.90;9.25;;;;;;;-7.17;87.70;95659.22;5059539;28;20040;-52
2022/01/26 07:02:14;;;;;;;16.30;9.70;;;;;;;-7.08;87.62;95662.88;5058750;28;20040;-49
2022/01/26 07:04:41;;;;;;;28.23;16.05;;;;;;;-6.97;87.37;95663.00;5061221;28;20525;-48
2022/01/26 07:07:08;;;;;;;23.50;12.02;;;;;;;-6.90;86.83;95660.84;5059906;28;20431;-50
2022/01/26 07:09:35;;;;;;;25.08;12.50;;;;;;;-6.82;86.81;95662.88;5060288;28;20415;-49
2022/01/26 07:12:02;;;;;;;24.98;13.80;;;;;;;-6.69;86.48;95658.59;5058632;28;20052;-49
2022/01/26 07:20:46;;;;;;;27.30;15.20;;;;;;;-6.51;84.30;95661.59;5055805;28;20051;-47
2022/01/26 07:22:49;;;;;;;44.78;20.48;;;;;;;-6.43;84.38;95654.25;5064571;28;20048;-48
2022/01/26 07:25:16;;;;;;;38.55;17.35;;;;;;;-6.39;84.40;95655.69;5060529;28;20044;-47
2022/01/26 07:27:43;;;;;;;33.00;15.18;;;;;;;-6.39;83.94;95640.47;5054628;28;20051;-48
2022/01/26 07:30:10;;;;;;;30.40;15.30;;;;;;;-6.24;83.57;95658.88;5057166;28;20130;-51
2022/01/26 07:32:37;;;;;;;34.50;19.30;;;;;;;-6.27;83.45;95651.47;5058486;28;20041;-48
2022/01/26 07:35:05;;;;;;;39.08;20.60;;;;;;;-6.16;83.64;95651.53;5063267;28;20493;-48
2022/01/26 07:37:32;;;;;;;40.85;18.50;;;;;;;-6.04;83.53;95644.78;5057849;28;20115;-47
2022/01/26 07:40:06;;;;;;;99.07;41.63;;;;;;;-5.97;83.15;95651.03;5054509;28;20040;-48
2022/01/26 07:42:34;;;;;;;47.15;22.50;;;;;;;-5.86;83.29;95646.91;5059408;28;20048;-49
2022/01/26 07:45:05;;;;;;;60.08;21.75;;;;;;;-5.74;83.24;95651.09;5063537;28;20123;-47
2022/01/26 07:47:32;;;;;;;54.63;22.08;;;;;;;-5.69;82.73;95641.44;5064210;28;20036;-48
2022/01/26 07:50:01;;;;;;;46.55;20.70;;;;;;;-5.61;81.29;95651.81;5060543;28;20052;-52
2022/01/26 07:52:33;;;;;;;50.22;26.27;;;;;;;-5.62;81.84;95649.38;5058600;28;20054;-51
2022/01/26 07:55:00;;;;;;;46.72;21.52;;;;;;;-5.53;81.65;95647.91;5061407;28;20050;-47
2022/01/26 07:57:26;;;;;;;48.08;23.38;;;;;;;-5.32;81.73;95650.63;5059128;28;20043;-49
2022/01/26 07:59:53;;;;;;;51.00;21.30;;;;;;;-5.24;80.49;95644.06;5060749;28;20040;-50
2022/01/26 08:02:21;;;;;;;67.10;32.67;;;;;;;-5.20;79.19;95647.19;5052309;28;20052;-48
2022/01/26 08:04:48;;;;;;;70.75;32.30;;;;;;;-5.13;79.77;95650.06;5062166;28;20046;-49
2022/01/26 08:07:15;;;;;;;63.38;28.15;;;;;;;-5.05;78.67;95652.84;5058421;28;20049;-50
2022/01/26 08:09:44;;;;;;;52.63;24.27;;;;;;;-5.12;78.08;95654.22;5056755;28;20037;-50
2022/01/26 08:12:13;;;;;;;43.78;21.33;;;;;;;-5.10;78.56;95654.91;5058373;28;20461;-50
2022/01/26 08:14:40;;;;;;;32.60;15.88;;;;;;;-5.06;78.81;95651.22;5060710;28;20203;-48
2022/01/26 08:17:08;;;;;;;35.30;16.60;;;;;;;-5.18;78.65;95653.75;5061034;28;20048;-47
2022/01/26 08:19:36;;;;;;;38.58;16.63;;;;;;;-5.19;79.31;95652.13;5056606;28;20052;-48
2022/01/26 08:22:03;;;;;;;28.55;13.27;;;;;;;-5.24;79.54;95656.75;5053913;28;20040;-47
2022/01/26 08:24:31;;;;;;;14.88;8.73;;;;;;;-5.24;79.79;95659.31;5053355;28;20040;-48
2022/01/26 08:27:06;;;;;;;27.30;10.68;;;;;;;-5.26;79.93;95651.00;5054335;28;20044;-49
2022/01/26 08:29:40;;;;;;;;;;;;;;;-5.24;80.48;95654.22;5064415;28;20036;-48
2022/01/26 08:32:07;;;;;;;22.50;12.30;;;;;;;-5.30;81.57;95649.56;5060966;28;19921;-48
2022/01/26 08:34:35;;;;;;;26.88;11.68;;;;;;;-5.20;81.30;95650.53;5063584;28;20052;-51
2022/01/26 08:37:03;;;;;;;34.30;14.55;;;;;;;-5.26;81.42;95650.16;5063862;28;20097;-50
2022/01/26 08:39:32;;;;;;;20.90;10.70;;;;;;;-5.15;81.74;95659.53;5063601;28;20045;-47
2022/01/26 08:42:00;;;;;;;30.85;14.43;;;;;;;-5.16;81.53;95651.09;5062592;28;20044;-48
2022/01/26 08:44:27;;;;;;;28.33;14.23;;;;;;;-5.04;81.54;95659.53;5066039;28;20114;-48
2022/01/26 08:46:56;;;;;;;25.73;10.40;;;;;;;-5.15;81.65;95636.66;5059079;28;20131;-49
2022/01/26 08:49:22;;;;;;;10.05;7.28;;;;;;;-5.04;81.91;95654.44;5062773;28;20052;-50
2022/01/26 08:51:51;;;;;;;35.00;12.50;;;;;;;-5.05;82.91;95647.75;5058907;28;20135;-48
2022/01/26 08:54:22;;;;;;;23.58;12.35;;;;;;;-4.94;83.25;95655.38;5057018;28;20040;-50
2022/01/26 08:56:50;;;;;;;21.25;9.90;;;;;;;-4.74;82.67;95658.16;5057317;28;20067;-48
2022/01/26 08:59:19;;;;;;;23.90;11.20;;;;;;;-4.66;82.19;95653.31;5060952;28;21345;-50
2022/01/26 09:01:46;;;;;;;16.92;7.57;;;;;;;-4.68;81.88;95662.78;5063021;28;20048;-47
2022/01/26 09:04:14;;;;;;;29.10;11.25;;;;;;;-4.68;82.45;95667.84;5059825;28;20148;-47
2022/01/26 09:06:59;;;;;;;22.42;11.57;;;;;;;-4.73;82.66;95662.34;5059940;28;20036;-50
2022/01/26 09:09:29;;;;;;;18.58;8.35;;;;;;;-4.66;82.56;95673.66;5058688;28;20429;-48
2022/01/26 09:11:58;;;;;;;15.23;9.85;;;;;;;-4.58;82.70;95673.88;5062330;28;20032;-48
2022/01/26 09:14:28;;;;;;;20.23;8.18;;;;;;;-4.50;82.88;95669.00;5056714;28;20063;-49
2022/01/26 09:16:55;;;;;;;16.23;10.10;;;;;;;-4.37;82.46;95678.25;5058511;28;20517;-47
2022/01/26 09:19:28;;;;;;;25.08;11.85;;;;;;;-4.35;82.32;95661.94;5058996;28;20518;-47
2022/01/26 09:22:05;;;;;;;31.55;14.25;;;;;;;-4.29;82.11;95655.56;5059764;28;20045;-49
2022/01/26 09:24:33;;;;;;;26.73;14.32;;;;;;;-4.33;82.19;95657.53;5058933;28;20052;-48
2022/01/26 09:27:02;;;;;;;22.42;13.70;;;;;;;-4.15;83.27;95641.78;5058111;28;20044;-48
2022/01/26 09:29:29;;;;;;;29.42;12.32;;;;;;;-4.14;82.54;95649.28;5060059;28;20041;-47
2022/01/26 09:31:57;;;;;;;23.92;10.07;;;;;;;-4.14;83.29;95644.22;5058688;28;20041;-46
2022/01/26 09:34:29;;;;;;;21.05;11.30;;;;;;;-4.03;83.71;95646.72;5060215;28;20127;-49
2022/01/26 09:36:57;;;;;;;19.50;9.93;;;;;;;-4.07;83.70;95645.34;5056778;28;20826;-48
2022/01/26 09:39:24;;;;;;;52.78;20.33;;;;;;;-3.91;83.56;95626.31;5057969;28;20049;-48
2022/01/26 09:41:52;;;;;;;26.55;13.77;;;;;;;-3.73;83.45;95627.38;5060052;28;20055;-49
2022/01/26 09:44:20;;;;;;;50.00;19.17;;;;;;;-3.58;83.95;95634.72;5057164;28;20041;-47
2022/01/26 09:46:47;;;;;;;25.42;12.80;;;;;;;-3.41;82.82;95621.41;5061149;28;20045;-50
2022/01/26 09:49:19;;;;;;;31.13;16.88;;;;;;;-3.15;82.91;95626.13;5056433;28;20792;-47
2022/01/26 09:51:50;;;;;;;18.77;9.85;;;;;;;-3.10;82.42;95624.00;5061876;28;20068;-50
2022/01/26 09:54:18;;;;;;;41.45;18.02;;;;;;;-2.90;81.84;95620.63;5056747;28;20051;-47
2022/01/26 09:56:51;;;;;;;39.75;18.52;;;;;;;-2.92;82.21;95614.84;5055682;28;20052;-47
2022/01/26 09:59:19;;;;;;;33.88;14.07;;;;;;;-2.90;82.08;95610.41;5062540;28;20048;-47
2022/01/26 10:01:48;;;;;;;47.55;19.45;;;;;;;-2.67;82.69;95612.75;5061231;28;20162;-49
2022/01/26 10:04:27;;;;;;;39.53;16.15;;;;;;;-2.57;82.46;95611.06;5062250;28;20049;-47
2022/01/26 10:07:20;;;;;;;22.50;11.85;;;;;;;-2.46;83.16;95602.50;5064375;28;20623;-48
2022/01/26 10:15:54;;;;;;;23.10;11.38;;;;;;;-2.44;83.37;95597.25;5064041;28;20425;-48
2022/01/26 10:18:21;;;;;;;19.25;10.15;;;;;;;-2.29;83.88;95597.69;5064133;28;20113;-47
2022/01/26 10:20:59;;;;;;;26.02;13.18;;;;;;;-2.15;83.98;95585.31;5060773;28;20059;-47
2022/01/26 10:23:35;;;;;;;26.17;10.55;;;;;;;-2.24;84.25;95581.03;5063254;28;20049;-49
2022/01/26 10:26:13;;;;;;;23.80;7.68;;;;;;;-2.16;84.98;95588.00;5062779;28;20528;-47
2022/01/26 10:28:47;;;;;;;19.83;6.88;;;;;;;-2.22;84.49;95594.47;5066169;28;20545;-48
2022/01/26 10:31:15;;;;;;;15.45;7.07;;;;;;;-2.08;85.11;95584.81;5062872;28;20517;-47
2022/01/26 10:34:13;;;;;;;12.68;5.82;;;;;;;-2.13;84.52;95583.44;5061950;28;20040;-48
2022/01/26 10:36:50;;;;;;;18.02;8.38;;;;;;;-2.37;85.33;95575.38;5070551;28;20055;-51
2022/01/26 10:39:31;;;;;;;10.93;5.93;;;;;;;-2.37;86.32;95585.59;5066262;28;20051;-48
2022/01/26 10:42:02;;;;;;;10.43;6.80;;;;;;;-2.40;87.30;95584.09;5067287;28;20052;-46
2022/01/26 10:47:46;;;;;;;8.30;4.43;;;;;;;-2.40;88.42;95583.28;5048303;28;20052;-47
2022/01/26 10:51:21;;;;;;;12.05;6.13;;;;;;;-2.39;89.79;95578.06;5061373;28;20090;-47
2022/01/26 10:53:15;;;;;;;14.73;6.68;;;;;;;-2.47;89.79;95585.56;5056983;28;20779;-47
2022/01/26 10:55:43;;;;;;;10.70;6.55;;;;;;;-2.45;91.27;95582.88;5065547;28;20051;-48
2022/01/26 10:58:11;;;;;;;19.08;7.80;;;;;;;-2.26;90.70;95575.25;5053413;28;20049;-48
2022/01/26 11:00:41;;;;;;;13.75;7.65;;;;;;;-2.33;90.45;95563.97;5057958;28;20040;-50
2022/01/26 11:03:11;;;;;;;10.20;7.25;;;;;;;-2.17;91.59;95569.34;5056458;28;20495;-47
2022/01/26 11:05:38;;;;;;;16.90;5.07;;;;;;;-2.05;90.79;95569.19;5056006;28;20045;-50
2022/01/26 11:08:09;;;;;;;7.05;4.63;;;;;;;-2.15;90.66;95570.00;5063581;28;20514;-47
2022/01/26 11:10:39;;;;;;;19.23;8.13;;;;;;;-2.18;90.70;95575.41;5058073;28;20045;-47
2022/01/26 11:13:29;;;;;;;12.63;7.30;;;;;;;-2.19;92.05;95573.78;5054255;28;20979;-47
2022/01/26 11:16:13;;;;;;;10.85;6.10;;;;;;;-2.13;92.18;95577.53;5053347;28;20049;-48
2022/01/26 11:18:46;;;;;;;11.13;5.53;;;;;;;-2.16;92.81;95563.31;5055198;28;20067;-47
2022/01/26 11:21:28;;;;;;;20.27;7.03;;;;;;;-2.20;92.80;95564.50;5052391;28;20595;-46
2022/01/26 11:24:16;;;;;;;8.13;4.85;;;;;;;-2.13;93.33;95563.03;5057666;28;21357;-45
2022/01/26 11:26:44;;;;;;;9.18;5.47;;;;;;;-2.39;94.13;95532.13;5052153;28;20045;-48
2022/01/26 11:29:25;;;;;;;6.43;5.07;;;;;;;-2.13;95.08;95557.91;5055997;28;20121;-47
2022/01/26 11:32:07;;;;;;;9.82;4.68;;;;;;;-2.04;95.12;95561.41;5057860;28;20075;-45
2022/01/26 11:34:35;;;;;;;12.48;8.20;;;;;;;-1.96;94.87;95568.41;5056369;28;20041;-46
2022/01/26 11:37:06;;;;;;;19.25;8.25;;;;;;;-1.98;95.61;95550.69;5059445;28;20054;-46
2022/01/26 11:45:03;;;;;;;14.38;6.32;;;;;;;-1.83;96.62;95558.72;5056288;28;20037;-48
2022/01/26 11:45:17;;;;;;;10.90;5.47;;;;;;;-1.65;95.33;95550.38;5055885;28;20055;-46
2022/01/26 11:48:09;;;;;;;18.05;8.30;;;;;;;-1.48;94.98;95541.19;5058112;28;20045;-45
2022/01/26 11:50:39;;;;;;;13.35;6.57;;;;;;;-1.40;94.13;95546.41;5056323;28;20048;-48
2022/01/26 11:53:05;;;;;;;11.93;6.47;;;;;;;-1.56;93.27;95554.66;5054242;28;20044;-46
2022/01/26 11:55:37;;;;;;;11.13;4.72;;;;;;;-1.69;94.40;95538.78;5056889;28;20051;-46
2022/01/26 11:58:08;;;;;;;10.70;6.03;;;;;;;-1.70;95.27;95542.31;5055613;28;20041;-46
2022/01/26 12:00:51;;;;;;;13.90;7.97;;;;;;;-1.61;95.82;95538.94;5056075;28;20036;-47
2022/01/26 12:03:31;;;;;;;10.50;5.63;;;;;;;-1.52;95.24;95532.97;5053835;28;20918;-47
2022/01/26 12:06:00;;;;;;;11.48;7.03;;;;;;;-1.25;94.82;95539.09;5055865;28;20486;-48
2022/01/26 12:08:38;;;;;;;9.90;5.82;;;;;;;-1.33;93.16;95549.19;5059714;28;20501;-49
2022/01/26 12:11:07;;;;;;;9.63;5.22;;;;;;;-1.55;94.89;95551.13;5054993;28;20052;-46
2022/01/26 12:13:37;;;;;;;9.60;5.43;;;;;;;-1.67;95.30;95550.50;5057511;28;20075;-49
2022/01/26 12:16:16;;;;;;;12.13;5.88;;;;;;;-1.62;95.62;95539.84;5055952;28;20040;-47
2022/01/26 12:18:55;;;;;;;13.25;6.28;;;;;;;-1.65;95.82;95550.38;5057842;28;20123;-45
2022/01/26 12:35:39;;;;;;;7.82;5.30;;;;;;;-1.60;98.34;95538.00;5040529;28;20420;-49
2022/01/26 12:43:52;;;;;;;10.50;6.32;;;;;;;-1.62;97.91;95529.63;5035845;28;20033;-50
2022/01/26 12:46:25;;;;;;;13.23;7.18;;;;;;;-1.53;98.95;95533.94;5038023;28;20037;-48
2022/01/26 12:48:54;;;;;;;10.25;5.05;;;;;;;-1.51;99.43;95532.06;5041767;28;20060;-49
2022/01/26 12:51:21;;;;;;;10.10;6.20;;;;;;;-1.62;99.82;95534.75;5038223;28;20048;-47
2022/01/26 12:53:59;;;;;;;17.50;9.05;;;;;;;-1.49;100.00;95540.38;5038519;28;20426;-46
2022/01/26 12:56:28;;;;;;;11.90;6.63;;;;;;;-1.55;99.06;95526.41;5037060;28;20049;-47
2022/01/26 12:59:15;;;;;;;14.07;6.97;;;;;;;-1.57;100.00;95524.94;5040100;28;20051;-47
2022/01/26 13:01:45;;;;;;;16.33;9.65;;;;;;;-1.37;100.00;95528.22;5038883;28;20172;-46
2022/01/26 13:04:14;;;;;;;12.10;6.25;;;;;;;-1.35;98.62;95531.47;5039542;28;20055;-46
2022/01/26 13:06:52;;;;;;;13.80;6.07;;;;;;;-1.50;98.04;95508.09;5043399;28;20044;-46
2022/01/26 13:09:21;;;;;;;15.23;8.38;;;;;;;-1.35;98.59;95516.94;5039562;28;20052;-46
2022/01/26 13:11:51;;;;;;;6.68;4.82;;;;;;;-1.55;98.86;95525.59;5038729;28;20076;-47
2022/01/26 13:14:58;;;;;;;9.45;5.03;;;;;;;-1.59;98.66;95534.47;5038977;28;20510;-46
2022/01/26 13:25:56;;;;;;;9.63;6.00;;;;;;;-1.55;100.00;95521.31;5037910;28;20041;-47
2022/01/26 13:36:45;;;;;;;12.90;5.00;;;;;;;-1.54;98.45;95522.09;5037093;28;20049;-46
2022/01/26 13:39:28;;;;;;;14.70;7.68;;;;;;;-1.65;99.09;95530.72;5038378;28;20502;-49
2022/01/26 13:55:00;;;;;;;11.52;7.07;;;;;;;-2.15;100.00;95503.66;5040114;28;20055;-47
2022/01/26 13:57:50;;;;;;;14.02;7.68;;;;;;;-2.02;100.00;95533.19;5038672;28;20451;-46
2022/01/26 14:00:21;;;;;;;10.55;5.90;;;;;;;-2.17;100.00;95536.16;5039208;28;20041;-46
2022/01/26 14:02:53;;;;;;;9.52;5.18;;;;;;;-2.24;100.00;95537.63;5036362;28;20525;-46
2022/01/26 14:05:20;;;;;;;9.45;5.20;;;;;;;-2.37;100.00;95534.56;5049089;28;20070;-46
2022/01/26 14:07:47;;;;;;;14.13;7.88;;;;;;;-2.32;100.00;95542.63;5039581;28;20550;-48
2022/01/26 14:10:14;;;;;;;19.40;6.78;;;;;;;-2.37;100.00;95542.22;5041277;28;20052;-46
2022/01/26 14:12:46;;;;;;;18.10;8.90;;;;;;;-2.33;100.00;95541.00;5040540;28;20060;-45
2022/01/26 14:15:19;;;;;;;7.20;4.38;;;;;;;-2.27;100.00;95545.56;5039418;28;20407;-45
2022/01/26 14:20:43;;;;;;;5.95;3.42;;;;;;;-2.29;100.00;95542.34;5039589;28;20051;-46
2022/01/26 14:26:00;;;;;;;8.10;5.10;;;;;;;-2.36;100.00;95546.34;5042390;28;20124;-45